Seer Green, United Kingdom
Current Conditions -  °F | °C
As of 12:50 PM on Friday 19 Dec 2014 (Local Time) from EGWU Reporting Station
Few Clouds Few Clouds  
Wind Chill: 42°   Ceiling: Unl
Heat Index: 48°   Visibility: 6mi
Dew Point: 36°   Wind: 18mph
Humidity: 62%   Direction: 290°WNW
Pressure: 30"   Gusts: NA
Location:  51.62°N, 0.61°W
Report Text: EGWU 191250Z 29016KT 9999 FEW025 09/02 Q1016 BLU NOSIG
Loading
Personal Weather Stations






























Interactive Weather Map New forecast layout! Learn more

10-Day Weather Forecast

Advertisements
Track Severe Weather on mobile